Time;durP1;ratioP1;P1;durP2;ratioP2;P2;SDS_P1;SDS_P2;PMS_P1;PMS_P2;Temp;Humidity;BMP_temperature;BMP_pressure;BME280_temperature;BME280_humidity;BME280_pressure;Samples;Min_cycle;Max_cycle;Signal;HPM_P1;HPM_P2
2023/05/12 00:01:01;;;;;;;;;;;;;;;12.28;85.38;98803.66;5047045;28;20327;-79
2023/05/12 00:03:26;;;;;;;;;;;;;;;12.34;85.46;98803.44;5028129;28;20380;-79
2023/05/12 00:05:51;;;;;;;;;;;;;;;12.28;85.80;98804.47;5025144;28;19929;-80
2023/05/12 00:08:17;;;;;;;;;;;;;;;12.33;85.51;98801.84;5030264;28;19929;-79
2023/05/12 00:10:42;;;;;;;;;;;;;;;12.36;85.72;98805.88;5033343;28;19924;-80
2023/05/12 00:13:08;;;;;;;;;;;;;;;12.36;85.41;98812.00;5050000;28;20375;-79
2023/05/12 00:15:33;;;;;;;;;;;;;;;12.28;85.84;98803.66;5046775;28;20296;-79
2023/05/12 00:17:58;;;;;;;;;;;;;;;12.35;86.00;98809.59;5027570;28;19975;-79
2023/05/12 00:20:24;;;;;;;;;;;;;;;12.34;85.77;98805.34;5039749;28;20027;-79
2023/05/12 00:22:49;;;;;;;;;;;;;;;12.36;85.75;98806.66;5009912;28;20367;-79
2023/05/12 00:25:14;;;;;;;;;;;;;;;12.39;85.56;98805.34;5046269;28;19925;-79
2023/05/12 00:27:39;;;;;;;;;;;;;;;12.38;85.64;98807.22;5045580;28;19940;-79
2023/05/12 00:30:05;;;;;;;;;;;;;;;12.36;85.69;98797.84;5029243;28;19933;-79
2023/05/12 00:32:31;;;;;;;;;;;;;;;12.33;86.05;98807.19;5028541;28;19921;-79
2023/05/12 00:34:56;;;;;;;;;;;;;;;12.32;86.18;98808.25;5027104;28;19913;-79
2023/05/12 00:37:22;;;;;;;;;;;;;;;12.37;86.36;98802.13;5018044;28;19924;-79
2023/05/12 00:39:47;;;;;;;;;;;;;;;12.23;86.23;98806.34;5018466;28;20419;-79
2023/05/12 00:42:12;;;;;;;;;;;;;;;12.23;86.85;98801.78;5013247;28;19931;-79
2023/05/12 00:44:37;;;;;;;;;;;;;;;12.04;87.69;98809.44;5047093;28;19928;-79
2023/05/12 00:47:03;;;;;;;;;;;;;;;12.25;87.19;98814.91;5025326;28;19920;-79
2023/05/12 00:49:30;;;;;;;;;;;;;;;12.36;86.55;98817.38;5042531;28;20316;-80
2023/05/12 00:51:57;;;;;;;;;;;;;;;12.41;86.57;98808.56;5046157;28;19924;-79
2023/05/12 00:54:22;;;;;;;;;;;;;;;12.33;86.49;98811.72;5041424;28;20026;-79
2023/05/12 00:56:47;;;;;;;;;;;;;;;12.40;86.27;98815.00;5051436;28;19929;-79
2023/05/12 00:59:12;;;;;;;;;;;;;;;12.40;86.18;98809.63;5028398;28;20020;-79
2023/05/12 01:01:38;;;;;;;;;;;;;;;12.32;86.28;98812.81;5016238;28;19921;-79
2023/05/12 01:04:03;;;;;;;;;;;;;;;12.30;86.50;98806.88;5027251;28;19935;-79
2023/05/12 01:06:37;;;;;;;;;;;;;;;12.26;86.65;98816.50;5028013;28;19924;-79
2023/05/12 01:09:02;;;;;;;;;;;;;;;12.26;86.52;98809.28;5042039;28;20480;-79
2023/05/12 01:11:28;;;;;;;;;;;;;;;12.22;86.53;98815.41;5024061;28;19960;-79
2023/05/12 01:13:53;;;;;;;;;;;;;;;12.23;86.77;98809.81;5028533;28;19984;-79
2023/05/12 01:16:21;;;;;;;;;;;;;;;12.24;86.73;98811.44;5024834;28;19925;-79
2023/05/12 01:18:52;;;;;;;;;;;;;;;12.23;86.88;98823.19;5026390;28;20483;-79
2023/05/12 01:21:18;;;;;;;;;;;;;;;12.18;87.04;98817.00;5027645;28;19924;-79
2023/05/12 01:23:45;;;;;;;;;;;;;;;12.26;86.82;98819.19;5009249;28;19925;-79
2023/05/12 01:26:11;;;;;;;;;;;;;;;12.33;86.54;98812.53;5045742;28;19916;-79
2023/05/12 01:28:37;;;;;;;;;;;;;;;12.28;86.38;98822.41;5043426;28;20303;-79
2023/05/12 01:31:03;;;;;;;;;;;;;;;12.31;86.49;98816.53;5023615;28;19936;-79
2023/05/12 01:33:28;;;;;;;;;;;;;;;12.26;86.91;98811.97;5025407;28;19917;-80
2023/05/12 01:35:53;;;;;;;;;;;;;;;12.27;86.82;98821.63;5045354;28;19995;-79
2023/05/12 01:38:18;;;;;;;;;;;;;;;12.21;86.82;98825.31;5026833;28;21233;-79
2023/05/12 01:40:44;;;;;;;;;;;;;;;12.22;86.79;98823.44;5024878;28;19944;-80
2023/05/12 01:43:09;;;;;;;;;;;;;;;12.11;87.17;98827.13;5022288;28;19921;-79
2023/05/12 01:45:35;;;;;;;;;;;;;;;12.17;87.31;98826.91;5039917;28;20044;-79
2023/05/12 01:48:00;;;;;;;;;;;;;;;12.19;87.08;98829.34;5027239;28;19932;-79
2023/05/12 01:50:25;;;;;;;;;;;;;;;12.26;86.69;98832.56;5025679;28;19921;-80
2023/05/12 01:52:51;;;;;;;;;;;;;;;12.18;86.62;98825.84;5031458;28;19972;-79
2023/05/12 01:55:16;;;;;;;;;;;;;;;12.21;86.69;98833.34;5024006;28;19925;-79
2023/05/12 01:57:41;;;;;;;;;;;;;;;12.22;86.74;98837.63;5020881;28;19925;-79
2023/05/12 02:00:07;;;;;;;;;;;;;;;12.25;86.57;98837.13;5026041;28;19932;-79
2023/05/12 02:02:33;;;;;;;;;;;;;;;12.21;86.74;98840.59;5041578;28;19924;-79
2023/05/12 02:04:58;;;;;;;;;;;;;;;12.17;86.63;98836.78;5041085;28;19935;-79
2023/05/12 02:07:24;;;;;;;;;;;;;;;12.12;87.07;98840.28;5026476;28;19925;-79
2023/05/12 02:09:49;;;;;;;;;;;;;;;12.15;86.93;98833.56;5042444;28;19925;-79
2023/05/12 02:12:15;;;;;;;;;;;;;;;12.18;86.65;98836.56;5009364;28;19924;-79
2023/05/12 02:14:40;;;;;;;;;;;;;;;12.15;86.51;98826.34;5043663;28;19925;-79
2023/05/12 02:17:05;;;;;;;;;;;;;;;12.13;86.71;98827.69;5026033;28;19924;-79
2023/05/12 02:19:30;;;;;;;;;;;;;;;12.08;86.87;98825.78;5026608;28;19928;-79
2023/05/12 02:21:55;;;;;;;;;;;;;;;12.09;87.01;98824.72;5030333;28;20463;-79
2023/05/12 02:24:21;;;;;;;;;;;;;;;12.03;87.22;98826.53;5027240;28;19928;-79
2023/05/12 02:26:46;;;;;;;;;;;;;;;12.05;86.61;98826.31;5042287;28;19975;-79
2023/05/12 02:29:11;;;;;;;;;;;;;;;12.02;87.16;98822.28;5009165;28;19921;-79
2023/05/12 02:31:36;;;;;;;;;;;;;;;12.02;87.31;98826.81;5023515;28;19929;-79
2023/05/12 02:34:02;;;;;;;;;;;;;;;12.05;87.15;98831.66;5027297;28;20028;-79
2023/05/12 02:36:27;;;;;;;;;;;;;;;12.04;86.96;98830.84;5042446;28;19917;-79
2023/05/12 02:38:53;;;;;;;;;;;;;;;12.15;86.79;98828.22;5044976;28;20418;-79
2023/05/12 02:41:18;;;;;;;;;;;;;;;12.13;86.41;98827.69;5004874;28;19931;-79
2023/05/12 02:43:43;;;;;;;;;;;;;;;12.09;86.59;98821.22;5023597;28;19917;-79
2023/05/12 02:46:08;;;;;;;;;;;;;;;12.11;86.87;98821.78;5011179;28;19925;-79
2023/05/12 02:48:34;;;;;;;;;;;;;;;12.03;87.06;98828.44;5036806;28;20269;-79
2023/05/12 02:50:59;;;;;;;;;;;;;;;12.08;86.95;98817.75;5024234;28;19924;-79
2023/05/12 02:53:25;;;;;;;;;;;;;;;12.08;86.47;98816.97;5046384;28;19947;-79
2023/05/12 02:55:51;;;;;;;;;;;;;;;12.11;86.80;98827.94;5042233;28;20368;-79
2023/05/12 02:58:17;;;;;;;;;;;;;;;12.06;86.56;98827.91;5044619;28;19960;-79
2023/05/12 03:00:42;;;;;;;;;;;;;;;12.04;86.64;98825.50;5025686;28;19931;-79
2023/05/12 03:03:07;;;;;;;;;;;;;;;11.96;87.26;98828.66;5038884;28;20188;-79
2023/05/12 03:05:32;;;;;;;;;;;;;;;11.93;86.94;98823.00;5024185;28;19925;-79
2023/05/12 03:07:58;;;;;;;;;;;;;;;11.95;87.07;98829.72;5024956;28;19943;-79
2023/05/12 03:10:23;;;;;;;;;;;;;;;12.05;86.97;98828.97;5035930;28;19917;-79
2023/05/12 03:12:48;;;;;;;;;;;;;;;12.06;86.79;98829.78;5017107;28;19936;-79
2023/05/12 03:15:14;;;;;;;;;;;;;;;11.63;88.45;98831.59;5041479;28;19929;-79
2023/05/12 03:17:39;;;;;;;;;;;;;;;11.93;87.57;98823.81;5011175;28;19928;-80
2023/05/12 03:20:05;;;;;;;;;;;;;;;12.10;86.75;98836.22;5009614;28;20288;-80
2023/05/12 03:22:30;;;;;;;;;;;;;;;12.04;86.80;98832.72;5022132;28;20372;-79
2023/05/12 03:24:55;;;;;;;;;;;;;;;12.02;87.08;98838.31;5027545;28;19929;-79
2023/05/12 03:27:20;;;;;;;;;;;;;;;11.85;86.99;98840.34;5045479;28;19931;-79
2023/05/12 03:29:46;;;;;;;;;;;;;;;11.96;87.25;98838.53;5025571;28;19968;-79
2023/05/12 03:32:11;;;;;;;;;;;;;;;12.08;86.93;98835.69;5029253;28;20323;-80
2023/05/12 03:34:37;;;;;;;;;;;;;;;12.03;86.46;98836.47;5045812;28;20109;-79
2023/05/12 03:37:02;;;;;;;;;;;;;;;12.04;86.38;98838.88;5010334;28;20028;-79
2023/05/12 03:39:27;;;;;;;;;;;;;;;12.10;86.51;98828.22;5043154;28;19943;-79
2023/05/12 03:41:52;;;;;;;;;;;;;;;12.06;86.53;98832.47;5020551;28;19928;-79
2023/05/12 03:44:18;;;;;;;;;;;;;;;12.07;86.33;98834.06;5022402;28;19947;-79
2023/05/12 03:46:43;;;;;;;;;;;;;;;12.08;86.11;98838.38;5038380;28;19925;-79
2023/05/12 03:49:08;;;;;;;;;;;;;;;12.03;86.57;98831.88;5036951;28;19932;-79
2023/05/12 03:51:34;;;;;;;;;;;;;;;12.01;86.76;98836.69;5037963;28;19948;-79
2023/05/12 03:53:59;;;;;;;;;;;;;;;12.03;86.67;98837.25;5026538;28;19924;-79
2023/05/12 03:56:24;;;;;;;;;;;;;;;12.07;86.68;98836.75;5027498;28;19927;-79
2023/05/12 03:58:49;;;;;;;;;;;;;;;12.07;86.62;98834.06;5042380;28;19920;-79
2023/05/12 04:01:15;;;;;;;;;;;;;;;12.06;86.73;98838.59;5042576;28;20319;-79
2023/05/12 04:03:41;;;;;;;;;;;;;;;12.04;86.83;98836.19;5023865;28;20324;-79
2023/05/12 04:06:06;;;;;;;;;;;;;;;12.05;86.95;98834.34;5023330;28;19925;-79
2023/05/12 04:08:31;;;;;;;;;;;;;;;12.04;86.55;98833.53;5030194;28;20023;-79
2023/05/12 04:10:57;;;;;;;;;;;;;;;12.10;86.67;98833.56;5052473;28;19963;-79
2023/05/12 04:13:23;;;;;;;;;;;;;;;12.09;86.62;98837.28;5031629;28;20370;-79
2023/05/12 04:15:48;;;;;;;;;;;;;;;12.04;86.80;98830.03;5050287;28;19916;-79
2023/05/12 04:18:14;;;;;;;;;;;;;;;12.12;86.84;98845.63;5029628;28;19921;-79
2023/05/12 04:20:39;;;;;;;;;;;;;;;12.14;86.53;98837.31;5022813;28;19928;-79
2023/05/12 04:23:05;;;;;;;;;;;;;;;12.15;86.42;98841.59;5030132;28;19928;-79
2023/05/12 04:25:31;;;;;;;;;;;;;;;12.10;86.75;98839.69;5046555;28;19929;-79
2023/05/12 04:27:56;;;;;;;;;;;;;;;12.13;86.50;98844.53;5013126;28;19924;-79
2023/05/12 04:30:22;;;;;;;;;;;;;;;12.17;86.56;98855.53;5017387;28;19925;-79
2023/05/12 04:32:47;;;;;;;;;;;;;;;12.18;86.97;98857.16;5033050;28;19925;-79
2023/05/12 04:35:13;;;;;;;;;;;;;;;12.18;86.79;98851.78;4999133;28;20953;-78
2023/05/12 04:37:38;;;;;;;;;;;;;;;12.18;86.76;98863.31;5036793;28;19925;-79
2023/05/12 04:40:04;;;;;;;;;;;;;;;12.18;87.17;98857.16;5014142;28;20762;-79
2023/05/12 04:42:29;;;;;;;;;;;;;;;12.18;87.24;98857.97;5013812;28;20440;-79
2023/05/12 04:44:55;;;;;;;;;;;;;;;12.19;87.51;98864.91;5018173;28;19932;-79
2023/05/12 04:47:20;;;;;;;;;;;;;;;12.20;87.34;98863.03;5015759;28;19927;-79
2023/05/12 04:49:46;;;;;;;;;;;;;;;12.21;87.25;98867.34;5017625;28;19928;-79
2023/05/12 04:52:11;;;;;;;;;;;;;;;12.22;87.46;98867.06;5031906;28;20008;-79
2023/05/12 04:54:37;;;;;;;;;;;;;;;12.04;87.97;98870.16;5007168;28;19953;-79
2023/05/12 04:57:03;;;;;;;;;;;;;;;12.10;88.43;98863.78;5024548;28;20725;-79
2023/05/12 04:59:29;;;;;;;;;;;;;;;12.21;87.80;98862.00;5019148;28;19925;-79
2023/05/12 05:01:54;;;;;;;;;;;;;;;12.23;87.67;98866.00;5020769;28;19948;-79
2023/05/12 05:04:20;;;;;;;;;;;;;;;12.23;87.73;98868.66;5021535;28;20303;-79
2023/05/12 05:06:45;;;;;;;;;;;;;;;12.21;88.02;98875.38;5037568;28;19927;-79
2023/05/12 05:09:10;;;;;;;;;;;;;;;12.26;87.86;98881.56;5027205;28;19947;-79
2023/05/12 05:11:36;;;;;;;;;;;;;;;12.22;88.47;98879.66;5020046;28;20016;-79
2023/05/12 05:14:01;;;;;;;;;;;;;;;12.04;89.71;98881.69;5026771;28;20005;-79
2023/05/12 05:16:27;;;;;;;;;;;;;;;11.43;93.45;98897.41;5011042;28;19928;-79
2023/05/12 05:18:52;;;;;;;;;;;;;;;11.30;95.34;98893.28;5042316;28;19917;-79
2023/05/12 05:21:17;;;;;;;;;;;;;;;11.21;96.44;98892.94;5040845;28;20078;-79
2023/05/12 05:23:42;;;;;;;;;;;;;;;11.19;97.00;98902.25;5026517;28;20470;-79
2023/05/12 05:26:08;;;;;;;;;;;;;;;11.07;98.08;98899.69;5023561;28;19931;-78
2023/05/12 05:28:33;;;;;;;;;;;;;;;11.04;99.00;98910.91;5042612;28;19917;-79
2023/05/12 05:30:58;;;;;;;;;;;;;;;10.93;99.19;98913.69;5044840;28;20296;-78
2023/05/12 05:33:24;;;;;;;;;;;;;;;10.75;100.00;98911.31;5046094;28;19932;-78
2023/05/12 05:35:49;;;;;;;;;;;;;;;10.86;100.00;98907.72;5026484;28;20388;-79
2023/05/12 05:38:14;;;;;;;;;;;;;;;10.78;100.00;98918.84;5028176;28;20404;-79
2023/05/12 05:40:39;;;;;;;;;;;;;;;10.87;100.00;98917.38;5014418;28;19980;-79
2023/05/12 05:43:05;;;;;;;;;;;;;;;11.35;97.85;98911.22;5014259;28;19925;-80
2023/05/12 05:45:30;;;;;;;;;;;;;;;11.08;97.53;98912.00;5043180;28;19932;-79
2023/05/12 05:47:56;;;;;;;;;;;;;;;10.90;99.55;98908.88;5045433;28;20908;-79
2023/05/12 05:50:21;;;;;;;;;;;;;;;11.20;99.62;98915.34;5014141;28;19931;-79
2023/05/12 05:52:46;;;;;;;;;;;;;;;11.35;99.32;98912.03;5011985;28;20016;-79
2023/05/12 05:55:12;;;;;;;;;;;;;;;11.54;97.56;98912.50;5039224;28;20303;-79
2023/05/12 05:57:37;;;;;;;;;;;;;;;11.76;95.82;98898.03;5009536;28;19924;-79
2023/05/12 06:00:03;;;;;;;;;;;;;;;12.00;93.23;98903.84;5044536;28;19921;-79
2023/05/12 06:02:30;;;;;;;;;;;;;;;12.13;93.04;98908.75;5026064;28;19932;-80
2023/05/12 06:04:56;;;;;;;;;;;;;;;12.00;96.08;98910.00;5026763;28;19947;-79
2023/05/12 06:07:21;;;;;;;;;;;;;;;11.87;97.05;98914.97;5025741;28;19917;-79
2023/05/12 06:09:46;;;;;;;;;;;;;;;11.58;98.67;98922.44;5042087;28;19928;-79
2023/05/12 06:12:12;;;;;;;;;;;;;;;11.40;99.38;98922.78;5030790;28;20290;-79
2023/05/12 06:14:37;;;;;;;;;;;;;;;11.50;100.00;98927.41;5012113;28;19921;-78
2023/05/12 06:17:02;;;;;;;;;;;;;;;11.58;100.00;98935.78;5027327;28;20020;-79
2023/05/12 06:19:27;;;;;;;;;;;;;;;11.47;100.00;98930.59;5036263;28;19928;-79
2023/05/12 06:21:53;;;;;;;;;;;;;;;11.49;100.00;98934.63;5046347;28;19921;-79
2023/05/12 06:24:18;;;;;;;;;;;;;;;11.56;100.00;98945.94;5025269;28;19925;-79
2023/05/12 06:26:43;;;;;;;;;;;;;;;11.73;100.00;98935.97;5026001;28;20807;-79
2023/05/12 06:29:09;;;;;;;;;;;;;;;11.90;99.63;98935.88;5023925;28;19917;-79
2023/05/12 06:31:34;;;;;;;;;;;;;;;11.85;98.79;98933.94;5041793;28;19963;-79
2023/05/12 06:34:00;;;;;;;;;;;;;;;12.04;98.12;98929.81;5007586;28;19956;-79
2023/05/12 06:36:26;;;;;;;;;;;;;;;11.81;99.09;98938.19;5015464;28;20351;-79
2023/05/12 06:38:52;;;;;;;;;;;;;;;11.89;98.11;98939.59;5021617;28;20364;-79
2023/05/12 06:41:17;;;;;;;;;;;;;;;12.09;96.87;98936.28;5014265;28;20357;-79
2023/05/12 06:43:43;;;;;;;;;;;;;;;12.02;97.69;98937.31;5023942;28;19970;-79
2023/05/12 06:46:08;;;;;;;;;;;;;;;12.01;97.81;98938.34;5019548;28;20298;-79
2023/05/12 06:48:33;;;;;;;;;;;;;;;11.94;98.38;98945.00;5026855;28;19970;-79
2023/05/12 06:50:59;;;;;;;;;;;;;;;12.14;96.99;98934.47;5041185;28;20455;-79
2023/05/12 06:53:24;;;;;;;;;;;;;;;12.06;97.20;98939.47;5006431;28;19925;-79
2023/05/12 06:55:49;;;;;;;;;;;;;;;12.08;98.10;98938.13;5024384;28;19928;-79
2023/05/12 06:58:15;;;;;;;;;;;;;;;12.18;97.97;98942.78;5004755;28;19920;-79
2023/05/12 07:00:40;;;;;;;;;;;;;;;12.44;95.84;98941.88;5040326;28;19923;-79
2023/05/12 07:03:08;;;;;;;;;;;;;;;12.58;96.17;98937.72;5024250;28;20307;-79
2023/05/12 07:05:34;;;;;;;;;;;;;;;12.57;96.41;98931.53;5020138;28;20246;-79
2023/05/12 07:07:59;;;;;;;;;;;;;;;12.63;95.29;98927.81;5025815;28;19975;-79
2023/05/12 07:10:24;;;;;;;;;;;;;;;12.28;94.56;98921.44;5042608;28;19928;-79
2023/05/12 07:12:49;;;;;;;;;;;;;;;12.77;93.91;98933.53;5027663;28;19925;-80
2023/05/12 07:15:15;;;;;;;;;;;;;;;12.78;94.40;98933.25;5040784;28;19928;-79
2023/05/12 07:17:40;;;;;;;;;;;;;;;13.11;92.23;98933.94;5041737;28;19983;-79
2023/05/12 07:20:05;;;;;;;;;;;;;;;13.29;91.32;98928.94;5022932;28;20073;-79
2023/05/12 07:22:31;;;;;;;;;;;;;;;13.34;91.95;98931.66;5044631;28;20277;-80
2023/05/12 07:24:56;;;;;;;;;;;;;;;13.40;90.65;98921.72;5044908;28;19947;-79
2023/05/12 07:27:22;;;;;;;;;;;;;;;13.41;90.67;98920.66;5021286;28;20304;-80
2023/05/12 07:29:47;;;;;;;;;;;;;;;13.33;91.78;98923.84;5040121;28;19928;-79
2023/05/12 07:32:12;;;;;;;;;;;;;;;13.32;91.01;98930.28;5014875;28;19929;-79
2023/05/12 07:34:38;;;;;;;;;;;;;;;13.60;91.39;98929.00;5025903;28;19929;-79
2023/05/12 07:37:05;;;;;;;;;;;;;;;13.78;89.33;98926.59;5049649;28;20335;-79
2023/05/12 07:39:31;;;;;;;;;;;;;;;14.04;89.01;98925.53;5044550;28;19917;-80
2023/05/12 07:41:57;;;;;;;;;;;;;;;13.82;88.30;98921.53;5026854;28;20771;-79
2023/05/12 07:44:22;;;;;;;;;;;;;;;13.48;88.24;98927.38;5046203;28;20016;-79
2023/05/12 07:46:48;;;;;;;;;;;;;;;13.53;89.08;98926.59;5037559;28;20408;-80
2023/05/12 07:49:13;;;;;;;;;;;;;;;13.79;88.22;98930.09;5049829;28;20810;-80
2023/05/12 07:51:38;;;;;;;;;;;;;;;13.92;89.65;98927.69;5027954;28;20680;-80
2023/05/12 07:54:05;;;;;;;;;;;;;;;14.21;86.25;98923.41;5031984;28;20582;-80
2023/05/12 07:56:30;;;;;;;;;;;;;;;13.99;86.80;98911.34;5023740;28;19916;-80
2023/05/12 07:58:55;;;;;;;;;;;;;;;14.15;86.56;98916.41;5032196;28;19927;-80
2023/05/12 08:01:21;;;;;;;;;;;;;;;14.34;86.69;98916.72;5027725;28;20493;-80
2023/05/12 08:03:46;;;;;;;;;;;;;;;14.03;85.49;98920.44;5026270;28;19924;-79
2023/05/12 08:06:11;;;;;;;;;;;;;;;14.12;86.89;98913.47;5033245;28;19925;-79
2023/05/12 08:08:36;;;;;;;;;;;;;;;14.19;86.49;98911.34;5011673;28;20023;-79
2023/05/12 08:11:02;;;;;;;;;;;;;;;14.37;85.57;98916.19;5023964;28;20011;-80
2023/05/12 08:13:27;;;;;;;;;;;;;;;14.16;85.54;98904.63;5047355;28;19986;-80
2023/05/12 08:15:52;;;;;;;;;;;;;;;14.63;85.18;98915.06;5014811;28;19928;-79
2023/05/12 08:18:17;;;;;;;;;;;;;;;14.49;87.29;98913.19;5031161;28;19929;-79
2023/05/12 08:20:43;;;;;;;;;;;;;;;14.62;87.06;98918.81;5028602;28;20028;-80
2023/05/12 08:23:08;;;;;;;;;;;;;;;14.73;85.88;98923.06;5028453;28;19967;-79
2023/05/12 08:25:35;;;;;;;;;;;;;;;14.79;86.26;98919.28;5044572;28;19925;-80
2023/05/12 08:28:00;;;;;;;;;;;;;;;14.46;84.69;98919.13;5042709;28;19916;-79
2023/05/12 08:30:26;;;;;;;;;;;;;;;14.61;84.11;98919.88;5044230;28;19935;-79
2023/05/12 08:32:51;;;;;;;;;;;;;;;14.51;84.64;98911.03;5031870;28;19916;-79
2023/05/12 08:35:16;;;;;;;;;;;;;;;14.61;86.33;98908.34;5025003;28;20003;-79
2023/05/12 08:37:42;;;;;;;;;;;;;;;14.55;85.36;98904.84;5025413;28;19925;-79
2023/05/12 08:40:13;;;;;;;;;;;;;;;14.34;85.42;98907.84;5029251;28;19928;-79
2023/05/12 08:42:42;;;;;;;;;;;;;;;14.41;84.41;98908.38;5044354;28;19995;-79
2023/05/12 08:45:09;;;;;;;;;;;;;;;14.48;86.15;98908.91;5020954;28;19925;-79
2023/05/12 08:47:36;;;;;;;;;;;;;;;14.51;86.23;98909.16;5028675;28;19925;-79
2023/05/12 08:50:02;;;;;;;;;;;;;;;14.66;85.40;98913.69;5031256;28;19916;-79
2023/05/12 08:52:31;;;;;;;;;;;;;;;14.64;86.17;98915.84;5048729;28;19938;-79
2023/05/12 08:54:57;;;;;;;;;;;;;;;14.68;86.62;98911.53;5018925;28;19928;-79
2023/05/12 08:57:23;;;;;;;;;;;;;;;14.65;84.25;98915.59;5031020;28;19928;-79
2023/05/12 08:59:49;;;;;;;;;;;;;;;15.01;87.35;98918.94;5023467;28;19921;-79
2023/05/12 09:02:16;;;;;;;;;;;;;;;14.79;82.94;98915.78;5022797;28;19921;-79
2023/05/12 09:04:41;;;;;;;;;;;;;;;14.91;84.92;98911.72;5041685;28;19948;-79
2023/05/12 09:07:07;;;;;;;;;;;;;;;15.02;83.46;98921.38;5042742;28;20389;-79
2023/05/12 09:09:33;;;;;;;;;;;;;;;15.03;82.94;98917.59;5022402;28;19920;-79
2023/05/12 09:12:00;;;;;;;;;;;;;;;15.27;84.08;98909.66;5024777;28;20019;-79
2023/05/12 09:14:26;;;;;;;;;;;;;;;15.15;82.33;98916.47;5045822;28;19917;-79
2023/05/12 09:16:54;;;;;;;;;;;;;;;15.32;82.75;98909.66;5044203;28;22242;-79
2023/05/12 09:19:20;;;;;;;;;;;;;;;15.60;81.90;98911.66;5028567;28;20011;-79
2023/05/12 09:21:45;;;;;;;;;;;;;;;15.48;78.84;98915.78;5022028;28;20018;-79
2023/05/12 09:24:11;;;;;;;;;;;;;;;15.64;79.33;98909.22;5044698;28;20040;-79
2023/05/12 09:26:46;;;;;;;;;;;;;;;15.62;78.74;98914.88;5035337;28;19921;-79
2023/05/12 09:29:11;;;;;;;;;;;;;;;15.82;78.88;98921.19;5030813;28;19923;-79
2023/05/12 09:31:37;;;;;;;;;;;;;;;15.92;79.73;98921.13;5030319;28;19916;-79
2023/05/12 09:34:08;;;;;;;;;;;;;;;15.73;78.37;98919.09;5051187;28;19962;-79
2023/05/12 09:36:34;;;;;;;;;;;;;;;15.65;76.57;98913.53;5052357;28;19917;-79
2023/05/12 09:39:06;;;;;;;;;;;;;;;15.85;76.70;98926.03;5034622;28;19921;-79
2023/05/12 09:41:35;;;;;;;;;;;;;;;16.13;77.89;98920.69;5032272;28;19963;-79
2023/05/12 09:44:00;;;;;;;;;;;;;;;15.94;78.00;98916.28;5047671;28;19924;-79
2023/05/12 09:46:25;;;;;;;;;;;;;;;16.14;72.41;98914.19;5027808;28;19923;-79
2023/05/12 09:48:54;;;;;;;;;;;;;;;16.36;72.02;98914.53;5029992;28;19946;-79
2023/05/12 09:51:19;;;;;;;;;;;;;;;16.47;72.23;98920.63;5051532;28;19917;-79
2023/05/12 09:53:45;;;;;;;;;;;;;;;16.72;73.71;98912.31;5027063;28;19931;-79
2023/05/12 09:56:11;;;;;;;;;;;;;;;16.84;72.47;98920.81;5031104;28;20000;-79
2023/05/12 09:58:39;;;;;;;;;;;;;;;17.00;67.90;98919.53;5044463;28;19925;-79
2023/05/12 10:01:04;;;;;;;;;;;;;;;16.98;67.04;98923.63;5037917;28;20360;-78
2023/05/12 10:03:31;;;;;;;;;;;;;;;16.99;67.23;98925.22;5026404;28;19982;-78
2023/05/12 10:05:58;;;;;;;;;;;;;;;17.03;65.84;98920.88;5040585;28;19971;-78
2023/05/12 10:08:26;;;;;;;;;;;;;;;17.20;66.73;98919.31;5043443;28;19928;-78
2023/05/12 10:10:52;;;;;;;;;;;;;;;17.44;67.47;98929.22;5049283;28;19917;-78
2023/05/12 10:13:17;;;;;;;;;;;;;;;17.29;63.44;98918.66;5038950;28;19928;-78
2023/05/12 10:15:43;;;;;;;;;;;;;;;17.36;61.96;98911.00;5044903;28;20611;-78
2023/05/12 10:18:09;;;;;;;;;;;;;;;17.44;64.05;98921.13;5025003;28;19920;-78
2023/05/12 10:20:35;;;;;;;;;;;;;;;17.53;62.63;98925.63;5044062;28;19954;-78
2023/05/12 10:23:00;;;;;;;;;;;;;;;17.81;62.77;98927.38;5041432;28;19921;-78
2023/05/12 10:25:26;;;;;;;;;;;;;;;17.87;65.12;98928.09;5025853;28;19929;-78
2023/05/12 10:27:53;;;;;;;;;;;;;;;17.92;62.09;98926.13;5026843;28;19921;-78
2023/05/12 10:30:18;;;;;;;;;;;;;;;17.60;58.36;98919.88;5028291;28;19925;-78
2023/05/12 10:32:43;;;;;;;;;;;;;;;17.93;62.28;98922.31;5045224;28;19951;-78
2023/05/12 10:35:10;;;;;;;;;;;;;;;17.69;54.11;98920.81;5028438;28;19943;-78
2023/05/12 10:37:36;;;;;;;;;;;;;;;17.84;57.17;98923.28;5029215;28;19917;-78
2023/05/12 10:40:03;;;;;;;;;;;;;;;18.02;59.98;98925.13;5029098;28;20008;-78
2023/05/12 10:42:36;;;;;;;;;;;;;;;18.00;55.69;98926.56;5045989;28;19951;-78
2023/05/12 10:45:03;;;;;;;;;;;;;;;18.10;60.73;98919.09;5046258;28;20657;-79
2023/05/12 10:47:35;;;;;;;;;;;;;;;18.19;58.03;98932.72;5038509;28;19917;-78
2023/05/12 10:50:00;;;;;;;;;;;;;;;18.26;55.99;98922.34;5030725;28;20316;-78
2023/05/12 10:52:26;;;;;;;;;;;;;;;18.32;56.43;98921.97;5046261;28;19940;-78
2023/05/12 10:54:58;;;;;;;;;;;;;;;18.42;55.57;98923.66;5015426;28;20372;-78
2023/05/12 10:57:24;;;;;;;;;;;;;;;18.48;54.54;98928.72;5048700;28;19921;-78
2023/05/12 10:59:59;;;;;;;;;;;;;;;18.35;52.48;98923.25;5030295;28;19928;-78
2023/05/12 11:02:28;;;;;;;;;;;;;;;18.29;51.65;98929.84;5042453;28;19936;-78
2023/05/12 11:05:02;;;;;;;;;;;;;;;18.35;51.19;98915.13;5028415;28;20019;-78
2023/05/12 11:07:29;;;;;;;;;;;;;;;18.49;50.82;98913.31;5017891;28;19983;-78
2023/05/12 11:09:55;;;;;;;;;;;;;;;18.81;52.89;98912.41;5048359;28;19920;-78
2023/05/12 11:12:21;;;;;;;;;;;;;;;19.03;57.75;98926.03;5052930;28;19966;-78
2023/05/12 11:14:46;;;;;;;;;;;;;;;18.92;51.15;98917.34;5053330;28;19925;-79
2023/05/12 11:17:12;;;;;;;;;;;;;;;19.05;50.93;98921.94;5034437;28;19923;-78
2023/05/12 11:19:38;;;;;;;;;;;;;;;19.33;51.89;98918.09;5035013;28;19970;-78
2023/05/12 11:22:08;;;;;;;;;;;;;;;19.25;49.13;98916.13;5035729;28;19927;-78
2023/05/12 11:24:34;;;;;;;;;;;;;;;19.33;49.75;98912.69;5051337;28;19925;-79
2023/05/12 11:26:59;;;;;;;;;;;;;;;19.59;54.92;98914.88;5035740;28;19921;-78
2023/05/12 11:29:24;;;;;;;;;;;;;;;19.68;50.67;98908.41;5039274;28;19960;-78
2023/05/12 11:31:50;;;;;;;;;;;;;;;19.67;49.55;98922.28;5051951;28;19978;-78
2023/05/12 11:34:19;;;;;;;;;;;;;;;19.63;50.89;98916.69;5030892;28;20293;-78
2023/05/12 11:36:45;;;;;;;;;;;;;;;20.18;54.08;98915.31;5049524;28;19927;-78
2023/05/12 11:39:21;;;;;;;;;;;;;;;19.85;49.83;98913.19;5032277;28;20296;-78
2023/05/12 11:41:47;;;;;;;;;;;;;;;20.46;54.48;98913.31;5049618;28;20463;-78
2023/05/12 11:44:14;;;;;;;;;;;;;;;20.22;49.69;98912.03;5048795;28;20034;-78
2023/05/12 11:46:40;;;;;;;;;;;;;;;20.93;58.12;98906.31;5028344;28;19925;-78
2023/05/12 11:49:09;;;;;;;;;;;;;;;20.63;54.46;98907.97;5035174;28;19935;-78
2023/05/12 11:51:35;;;;;;;;;;;;;;;20.87;53.82;98913.81;5029354;28;19916;-79
2023/05/12 11:54:00;;;;;;;;;;;;;;;20.86;47.28;98906.78;5049595;28;19931;-78
2023/05/12 11:56:25;;;;;;;;;;;;;;;20.83;46.99;98907.41;5050256;28;20143;-78
2023/05/12 11:58:55;;;;;;;;;;;;;;;20.96;44.44;98899.47;5018925;28;19967;-78
2023/05/12 12:01:20;;;;;;;;;;;;;;;21.08;43.22;98903.19;5050606;28;20377;-78
2023/05/12 12:03:47;;;;;;;;;;;;;;;21.50;48.16;98907.09;5030258;28;19924;-78
2023/05/12 12:06:12;;;;;;;;;;;;;;;21.50;43.67;98909.81;5051188;28;19927;-78
2023/05/12 12:08:48;;;;;;;;;;;;;;;21.42;46.69;98914.16;5030950;28;19917;-78
2023/05/12 12:11:13;;;;;;;;;;;;;;;21.07;45.86;98914.38;5052596;28;20418;-78
2023/05/12 12:13:45;;;;;;;;;;;;;;;20.84;46.05;98917.13;5029559;28;20015;-78
2023/05/12 12:16:11;;;;;;;;;;;;;;;20.43;46.11;98913.91;5029787;28;19932;-78
2023/05/12 12:18:36;;;;;;;;;;;;;;;20.73;47.38;98934.00;5046250;28;20323;-78
2023/05/12 12:21:01;;;;;;;;;;;;;;;20.16;45.53;98939.22;5011141;28;19963;-76
2023/05/12 12:23:26;;;;;;;;;;;;;;;20.16;47.26;98938.41;5047803;28;20375;-76
2023/05/12 12:25:52;;;;;;;;;;;;;;;19.77;46.56;98930.97;5046013;28;19928;-76
2023/05/12 12:28:17;;;;;;;;;;;;;;;20.10;56.72;98936.94;5022116;28;20043;-76
2023/05/12 12:30:42;;;;;;;;;;;;;;;20.10;47.25;98942.38;5007280;28;19960;-76
2023/05/12 12:33:07;;;;;;;;;;;;;;;19.96;51.25;98941.66;5044061;28;19921;-76
2023/05/12 12:35:32;;;;;;;;;;;;;;;19.47;44.86;98931.66;5031183;28;19929;-76
2023/05/12 12:37:58;;;;;;;;;;;;;;;19.55;45.90;98940.97;5029406;28;19982;-76